AirNav   Air Wisconsin Up To $57,000 Bonus
 
 1468 users online  

I40 Richard Downing Airport
Coshocton, Ohio, USA

GOING TO COSHOCTON?


FAA INFORMATION EFFECTIVE 05 NOVEMBER 2020

Location

FAA Identifier: I40
Lat/Long: 40-18-36.6000N 081-51-08.7000W
40-18.610000N 081-51.145000W
40.3101667,-81.8524167
(estimated)
Elevation: 978.9 ft. / 298.4 m (surveyed)
Variation: 07W (2000)
From city: 3 miles N of COSHOCTON, OH
Time zone: UTC -5 (UTC -4 during Daylight Saving Time)
Zip code: 43812

Airport Operations

Airport use: Open to the public
Control tower: no
ARTCC: INDIANAPOLIS CENTER
FSS: CLEVELAND FLIGHT SERVICE STATION
NOTAMs facility: CLE (NOTAM-D service available)
Attendance: 0900-1700
EXCLDG MAJOR HOLS.
FOR SER AFT HRS SEE SIGN IN FBO VESTIBULE FOR CTC INFO.
Wind indicator: yes
Segmented circle: no
Lights: ACTVT REIL RWY 22; MIRL RWY 04/22 - 122.9. PAPI RWY 04 & 22 OPR CONSLY.
Beacon: white-green (lighted land airport)
Operates sunset to sunrise.

Airport Communications

CTAF/UNICOM: 123.0
WX AWOS-3: 118.875 (740-295-7370)
WX AWOS-3 at 10G (14 nm N): 128.325 (330-674-6279)
  • APCH/DEP SVC PRVDD BY INDIANAPOLIS ARTCC ON FREQS 124.45/370.9 (ZANESVILLE RCAG).

Nearby radio navigation aids

VOR radial/distance  VOR name  Freq  Var
ZZVr011/22.2ZANESVILLE VOR/DME114.9506W
BSVr221/32.2BRIGGS VOR/DME112.4004W
APEr080/35.0APPLETON VORTAC116.7006W

 
NDB name  Hdg/Dist  Freq  Var  ID
CADIZ284/38.723907WCFX -.-. ..-. -..-

Airport Services

Fuel available: 100LL JET-A+
Parking: hangars and tiedowns
Airframe service: MAJOR
Powerplant service: MAJOR
Bottled oxygen: NONE
Bulk oxygen: NONE

Runway Information

Runway 4/22

Dimensions: 5001 x 75 ft. / 1524 x 23 m
Surface: asphalt, in fair condition
OPN, UNSEALED JOINTS.
Weight bearing capacity: 
Single wheel: 30.0
Double wheel: 35.0
Runway edge lights: medium intensity
Runway edge markings: NOT VSB.
RUNWAY 4  RUNWAY 22
Latitude: 40-18.282397N40-18.936983N
Longitude: 081-51.470680W081-50.817750W
Elevation: 973.1 ft.978.6 ft.
Traffic pattern: leftleft
Runway heading: 044 magnetic, 037 true224 magnetic, 217 true
Markings: nonprecision, in poor conditionnonprecision, in poor condition
Visual slope indicator: 2-light PAPI on left (3.50 degrees glide path)4-light PAPI on right (3.00 degrees glide path)
UNUSBL BYD 8 DEGS L OF CRS.
Runway end identifier lights: noyes
Touchdown point: yes, no lightsyes, no lights
Obstructions: 135 ft. trees, 2553 ft. from runway, 17:1 slope to clear
+14 TO +18 FT BRUSH, 200 FT DIST EXTDG TO THR, 105 L.
24 ft. trees, 392 ft. from runway, 142 ft. left of centerline, 8:1 slope to clear
+16 TO +18 FT TREES & BRUSH, 200 FT DIST EXTDG TO 100 FT FM THR, 200 FT L.

Airport Ownership and Management from official FAA records

Ownership: Publicly-owned
Owner: COSHOCTON CO RGNL ARPT AUTH
24569 AIRPORT RD
COSHOCTON, OH 43812-9219
Phone 740-622-2252
Manager: BETHEL R TOLER
24569 AIRPORT RD
COSHOCTON, OH 43812-9219
Phone 740-622-2252
BETHELTOLER@COSHOCTONCOUNTY.NET.

Airport Operational Statistics

Aircraft based on the field: 19
Single engine airplanes: 16
Multi engine airplanes: 3
    
Aircraft operations: avg 53/day *
77% local general aviation
22% transient general aviation
1% air taxi
<1% military
* for 12-month period ending 16 July 2020

Additional Remarks

DEER, BIRDS, & OTR WILDLIFE ON & INVOF ARPT.
GCO 121.725 INDIANAPOLIS CENTER.
FOR CD IF UNA VIA GCO CTC INDIANAPOLIS ARTCC AT 317-247-2411.

Instrument Procedures

NOTE: All procedures below are presented as PDF files. If you need a reader for these files, you should download the free Adobe Reader.

NOT FOR NAVIGATION. Please procure official charts for flight.
FAA instrument procedures published for use from 05 November 2020 at 0901Z to 03 December 2020 at 0900z.

 
IAPs - Instrument Approach Procedures
RNAV (GPS) RWY 04 **CHANGED**   download (241KB)
RNAV (GPS) RWY 22 **CHANGED**   download (238KB)
NOTE: Special Take-Off Minimums/Departure Procedures apply   download (242KB)

Other nearby airports with instrument procedures:

10G - Holmes County Airport (14 nm N)
KPHD - Harry Clever Field Airport (22 nm NE)
KZZV - Zanesville Municipal Airport (22 nm S)
KCDI - Cambridge Municipal Airport (24 nm SE)
4I3 - Knox County Airport (31 nm W)
 
Loc | Ops | Rwys | IFR | FBO | Links
Com | Nav | Svcs | Stats | Notes
Area around I40 (Richard Downing Airport)
 
Road maps at: MapQuest Bing Google
 
Aerial photo
WARNING: Photo may not be current or correct
Aerial photo of I40 (Richard Downing Airport)
Photo courtesy of AirNav, LLC
Photo taken 09-May-2010

Do you have a better or more recent aerial photo of Richard Downing Airport that you would like to share? If so, please send us your photo.

 
Sectional chart

 
Airport distance calculator
Flying to Richard Downing Airport? Find the distance to fly.

From to I40

Sunrise and sunset
Times for 02-Dec-2020
 Local
(UTC-5)
 Zulu
(UTC)
Morning civil twilight07:0412:04
Sunrise07:3412:34
Sunset17:0122:01
Evening civil twilight17:3122:31

Current date and time
Zulu (UTC)  02-Dec-2020 17:43:34
Local (UTC-5)  02-Dec-2020 12:43:34
 
METAR
KZZV 
22nm S 
021653Z AUTO 27006KT 10SM CLR 01/M04 A3028 RMK AO2 SLP263 T00061039
KPHD 
22nm NE 
021653Z AUTO 28007KT 10SM CLR 01/M04 A3025 RMK AO2 SLP254 T00111039
KCDI 
24nm SE 
021715Z AUTO 27006KT 10SM SCT022 02/M03 A3028 RMK AO2 T00151028
K4I3 
31nm W 
021715Z AUTO 25008KT 10SM CLR 02/M04 A3027 RMK AO2
KVTA 
33nm SW 
021654Z AUTO 22009KT 10SM CLR 02/M03 A3028 RMK AO2 SLP262 T00171028
KBJJ 
33nm N 
021656Z AUTO 28009KT 10SM CLR 00/M04 A3023 RMK AO2 SLP247 T00001044
KCAK 
41nm NE 
021651Z 27009KT 10SM FEW023 01/M03 A3020 RMK AO2 SLP239 T00111033
KMFD 
43nm NW 
021652Z 25011KT 10SM CLR 01/M04 A3023 RMK AO2 SLP250 T00061039
TAF
KZZV 
22nm S 
020752Z 0208/0306 27009KT P6SM BKN030 FM021000 27009KT P6SM BKN040 FM021600 26010KT P6SM SKC FM030200 23004KT P6SM SKC
NOTAMs
Click for the latest NOTAMs
NOTAMs are issued by the DoD/FAA and will open in a separate window not controlled by AirNav.

 

 
 

FBO, Fuel Providers, and Aircraft Ground Support

  
 Business Name 
 
 Contact 
 
 Services / Description 
 
Fuel Prices
 
Comments
  
 Richard Downing Airport
UNICOM 123.00
740-622-2252
[web site]
[email]
We have one of the most lowest priced 100LL and JetA/Prist Fuel available. 100LL fuel discount for Cash.
 
EPIC Card   Courtesy car   Courtesy transportation   Wireless Internet Access (WiFi)  
 
More info about Richard Downing Airport
EPIC
100LL Jet A
FS $3.91 $3.10 
GUARANTEED
 
   5 read write
FS=Full service
Update Fuel Prices
 

Where to Eat: Catering, Restaurants, Food shops

  
 Business Name 
 
 Contact 
 
 Services / Description 
 
Distance
 
Comments
  
 Adams Runway Grill
740-622-2252 Restaurant

More info about Adams Runway Grill
on airport  
   write
 

Would you like to see your business listed on this page?

 If your business provides an interesting product or service to pilots, flight crews, aircraft, or users of the Richard Downing Airport, you should consider listing it here.  To start the listing process, click on the button below
 
Add a business
 

Other Pages about Richard Downing Airport

www.coshoctoncountyairport.com
 
Update a link
 
Copyright © AirNav, LLC. All rights reserved. Privacy Policy  Contact